Time;durP1;ratioP1;P1;durP2;ratioP2;P2;SDS_P1;SDS_P2;PMS_P1;PMS_P2;Temp;Humidity;BMP_temperature;BMP_pressure;BME280_temperature;BME280_humidity;BME280_pressure;Samples;Min_cycle;Max_cycle;Signal;HPM_P1;HPM_P2
2023/07/07 00:01:04;;;;;;;5.43;3.97;;;;;;;14.71;62.96;101489.53;7397149;19;20082;-69
2023/07/07 00:03:33;;;;;;;6.07;4.40;;;;;;;14.66;63.04;101492.31;7396129;19;20078;-68
2023/07/07 00:06:02;;;;;;;6.90;4.07;;;;;;;14.63;63.22;101491.47;7396622;19;20011;-69
2023/07/07 00:08:31;;;;;;;6.45;4.32;;;;;;;14.57;63.45;101495.16;7394742;19;20070;-69
2023/07/07 00:11:04;;;;;;;5.20;3.63;;;;;;;14.53;63.65;101496.13;7395214;19;20018;-69
2023/07/07 00:13:33;;;;;;;5.97;4.30;;;;;;;14.49;63.59;101492.72;7396244;19;20018;-68
2023/07/07 00:16:02;;;;;;;4.95;3.90;;;;;;;14.45;63.80;101498.97;7396151;19;20500;-68
2023/07/07 00:18:30;;;;;;;8.40;4.03;;;;;;;14.38;63.54;101492.16;7396690;19;20025;-68
2023/07/07 00:21:01;;;;;;;5.20;4.05;;;;;;;14.36;64.10;101496.59;7396091;19;20499;-68
2023/07/07 00:23:32;;;;;;;5.85;3.72;;;;;;;14.32;64.15;101493.16;7394768;19;20074;-68
2023/07/07 00:26:08;;;;;;;5.28;3.90;;;;;;;14.28;64.45;101499.41;7396876;19;20025;-69
2023/07/07 00:28:38;;;;;;;4.68;3.85;;;;;;;14.23;64.48;101488.13;7396032;19;20069;-68
2023/07/07 00:31:06;;;;;;;4.25;3.53;;;;;;;14.18;64.81;101493.50;7396192;19;20074;-68
2023/07/07 00:33:34;;;;;;;5.57;4.35;;;;;;;14.14;64.65;101483.03;7394924;19;20450;-68
2023/07/07 00:36:03;;;;;;;5.40;4.18;;;;;;;14.10;65.01;101484.03;7396032;19;20014;-68
2023/07/07 00:38:31;;;;;;;4.38;3.97;;;;;;;14.06;64.93;101492.94;7395779;19;20115;-68
2023/07/07 00:41:02;;;;;;;5.38;4.10;;;;;;;14.02;65.24;101482.44;7394894;19;20038;-68
2023/07/07 00:43:33;;;;;;;5.95;3.90;;;;;;;13.99;65.50;101493.09;7395238;19;20086;-68
2023/07/07 00:46:05;;;;;;;4.63;4.13;;;;;;;13.96;65.64;101494.94;7394467;19;20090;-68
2023/07/07 00:48:37;;;;;;;5.80;4.43;;;;;;;13.92;65.65;101488.00;7395965;19;20018;-68
2023/07/07 00:51:12;;;;;;;4.47;4.07;;;;;;;13.88;65.74;101489.84;7395318;19;20015;-68
2023/07/07 00:53:42;;;;;;;5.30;4.22;;;;;;;13.84;65.79;101490.81;7394930;19;20078;-68
2023/07/07 00:56:17;;;;;;;5.53;4.15;;;;;;;13.79;65.93;101493.56;7395806;19;20074;-68
2023/07/07 00:58:48;;;;;;;4.85;4.13;;;;;;;13.72;66.00;101497.22;7395927;19;20030;-68
2023/07/07 01:01:19;;;;;;;6.38;4.75;;;;;;;13.71;66.24;101499.91;7395827;19;20014;-68
2023/07/07 01:03:53;;;;;;;4.97;4.18;;;;;;;13.66;66.28;101492.97;7393774;19;20541;-68
2023/07/07 01:06:25;;;;;;;6.47;4.80;;;;;;;13.63;66.44;101503.56;7394962;19;20447;-68
2023/07/07 01:09:09;;;;;;;5.13;3.90;;;;;;;13.59;66.64;101511.59;7393486;19;20359;-68
2023/07/07 01:11:39;;;;;;;4.50;4.10;;;;;;;13.55;66.56;101505.53;7394780;19;20570;-68
2023/07/07 01:14:14;;;;;;;4.30;3.67;;;;;;;13.50;66.77;101510.88;7393866;19;20070;-69
2023/07/07 01:16:54;;;;;;;4.40;4.00;;;;;;;13.46;66.78;101509.22;7395370;19;20019;-68
2023/07/07 01:19:57;;;;;;;5.80;4.60;;;;;;;13.43;66.93;101511.91;7394956;19;20021;-68
2023/07/07 01:23:02;;;;;;;5.82;4.55;;;;;;;13.39;67.11;101518.16;7393938;19;20035;-68
2023/07/07 01:25:40;;;;;;;6.07;4.30;;;;;;;13.34;67.21;101512.97;7389296;19;20099;-68
2023/07/07 01:28:25;;;;;;;7.82;4.53;;;;;;;13.30;67.36;101513.91;7394322;19;20076;-68
2023/07/07 01:31:01;;;;;;;5.47;4.57;;;;;;;13.26;67.64;101511.41;7394998;19;20019;-68
2023/07/07 01:33:33;;;;;;;7.43;4.28;;;;;;;13.23;67.54;101508.81;7392632;19;20021;-68
2023/07/07 01:36:02;;;;;;;4.70;4.10;;;;;;;13.23;67.61;101519.34;7394164;19;20545;-68
2023/07/07 01:38:34;;;;;;;5.00;4.50;;;;;;;13.19;67.75;101514.16;7394331;19;20086;-68
2023/07/07 01:41:10;;;;;;;5.82;4.63;;;;;;;13.15;68.01;101508.97;7394536;19;20081;-68
2023/07/07 01:43:43;;;;;;;4.75;4.10;;;;;;;13.12;68.02;101504.63;7392807;19;20161;-68
2023/07/07 01:46:21;;;;;;;5.38;4.07;;;;;;;13.09;68.25;101514.34;7394629;19;20091;-68
2023/07/07 01:48:54;;;;;;;7.45;4.97;;;;;;;13.06;68.25;101506.53;7393756;19;20491;-68
2023/07/07 01:51:28;;;;;;;5.53;4.65;;;;;;;13.02;68.27;101505.72;7396090;19;20075;-69
2023/07/07 01:53:58;;;;;;;;;;;;;;;13.00;68.12;101511.03;7400034;19;20025;-69
2023/07/07 01:56:31;;;;;;;5.72;4.63;;;;;;;12.97;67.95;101510.22;7399481;19;19919;-68
2023/07/07 01:59:00;;;;;;;4.38;3.97;;;;;;;12.94;68.37;101516.41;7402197;19;20074;-69
2023/07/07 02:01:32;;;;;;;4.85;4.30;;;;;;;12.89;68.44;101510.38;7401287;19;20018;-68
2023/07/07 02:04:00;;;;;;;5.05;4.47;;;;;;;12.88;68.42;101516.53;7398564;19;20018;-68
2023/07/07 02:06:29;;;;;;;7.07;4.72;;;;;;;12.85;68.75;101513.94;7398030;19;20083;-68
2023/07/07 02:08:57;;;;;;;4.40;4.00;;;;;;;12.82;68.83;101514.00;7400230;19;20086;-68
2023/07/07 02:11:26;;;;;;;5.03;4.05;;;;;;;12.78;68.82;101518.44;7401103;19;20078;-68
2023/07/07 02:13:55;;;;;;;4.95;4.45;;;;;;;12.77;68.97;101516.72;7400054;19;20085;-67
2023/07/07 02:16:23;;;;;;;5.90;4.28;;;;;;;12.73;69.11;101514.19;7398977;19;20091;-67
2023/07/07 02:18:54;;;;;;;5.03;4.50;;;;;;;12.69;69.17;101529.16;7400209;19;20015;-67
2023/07/07 02:21:23;;;;;;;4.28;3.88;;;;;;;12.66;69.22;101527.47;7398047;19;20019;-68
2023/07/07 02:23:51;;;;;;;5.97;4.32;;;;;;;12.62;69.13;101522.25;7398358;19;20511;-67
2023/07/07 02:26:20;;;;;;;6.35;5.07;;;;;;;12.58;69.25;101518.81;7400376;19;20073;-67
2023/07/07 02:28:49;;;;;;;6.25;5.03;;;;;;;12.54;69.48;101520.63;7397829;19;20014;-67
2023/07/07 02:31:18;;;;;;;5.45;4.43;;;;;;;12.51;69.63;101520.69;7397250;19;20489;-67
2023/07/07 02:33:46;;;;;;;5.05;4.57;;;;;;;12.47;69.41;101516.38;7398645;19;20078;-67
2023/07/07 02:36:18;;;;;;;6.32;4.88;;;;;;;12.44;69.60;101521.69;7397118;19;20010;-67
2023/07/07 02:38:47;;;;;;;5.05;4.50;;;;;;;12.40;69.89;101522.63;7400012;19;20019;-68
2023/07/07 02:41:15;;;;;;;6.57;4.93;;;;;;;12.36;70.01;101524.44;7399604;19;20018;-68
2023/07/07 02:43:44;;;;;;;5.10;4.65;;;;;;;12.33;70.03;101518.38;7398240;19;20029;-67
2023/07/07 02:46:12;;;;;;;5.70;4.75;;;;;;;12.29;70.18;101522.81;7397303;19;20023;-68
2023/07/07 02:48:40;;;;;;;4.70;4.30;;;;;;;12.26;70.21;101519.34;7399249;19;20010;-68
2023/07/07 02:51:09;;;;;;;5.55;4.70;;;;;;;12.23;70.55;101517.63;7397314;19;20362;-68
2023/07/07 02:53:40;;;;;;;5.63;4.80;;;;;;;12.20;70.44;101526.44;7396849;19;20028;-68
2023/07/07 02:56:09;;;;;;;5.07;4.55;;;;;;;12.17;70.48;101529.16;7399610;19;20490;-67
2023/07/07 02:58:37;;;;;;;5.72;4.70;;;;;;;12.16;70.72;101526.53;7399236;19;20081;-67
2023/07/07 03:01:12;;;;;;;6.72;5.13;;;;;;;12.14;70.83;101529.19;7399285;19;20032;-67
2023/07/07 03:03:42;;;;;;;5.35;4.38;;;;;;;12.13;70.94;101529.22;7396388;19;20030;-67
2023/07/07 03:06:12;;;;;;;5.15;4.65;;;;;;;12.13;71.03;101529.22;7397085;19;20435;-66
2023/07/07 03:08:43;;;;;;;5.72;5.13;;;;;;;12.11;71.17;101526.59;7398611;19;20015;-67
2023/07/07 03:11:14;;;;;;;5.35;4.85;;;;;;;12.11;71.07;101528.38;7397270;19;20017;-67
2023/07/07 03:13:43;;;;;;;6.22;5.05;;;;;;;12.09;70.94;101528.38;7397306;19;20037;-68
2023/07/07 03:16:13;;;;;;;5.85;5.28;;;;;;;12.07;70.92;101524.94;7398645;19;20014;-68
2023/07/07 03:18:42;;;;;;;6.93;5.00;;;;;;;12.05;71.11;101534.59;7396814;19;20082;-68
2023/07/07 03:21:14;;;;;;;5.53;4.75;;;;;;;12.04;71.09;101533.72;7396456;19;20022;-68
2023/07/07 03:23:45;;;;;;;6.45;5.00;;;;;;;12.02;71.13;101539.91;7396726;19;20019;-67
2023/07/07 03:26:15;;;;;;;7.03;4.72;;;;;;;12.00;71.12;101539.06;7395830;19;20438;-67
2023/07/07 03:28:44;;;;;;;6.03;5.40;;;;;;;11.98;70.98;101535.56;7395898;19;20373;-67
2023/07/07 03:31:15;;;;;;;6.82;5.30;;;;;;;11.97;71.04;101533.84;7398233;19;20082;-67
2023/07/07 03:33:47;;;;;;;5.72;4.82;;;;;;;11.96;71.03;101540.00;7397005;19;20022;-67
2023/07/07 03:36:15;;;;;;;5.20;4.32;;;;;;;11.92;71.02;101541.75;7397513;19;20434;-67
2023/07/07 03:38:46;;;;;;;6.20;5.13;;;;;;;11.90;70.90;101549.69;7397560;19;20094;-66
2023/07/07 03:41:18;;;;;;;5.85;5.25;;;;;;;11.88;70.89;101547.97;7396035;19;20086;-66
2023/07/07 03:43:46;;;;;;;6.85;5.18;;;;;;;11.87;71.00;101548.84;7395846;19;20534;-66
2023/07/07 03:46:16;;;;;;;6.60;5.43;;;;;;;11.86;71.00;101547.09;7395344;19;20019;-67
2023/07/07 03:48:46;;;;;;;7.13;5.13;;;;;;;11.85;70.92;101546.25;7397567;19;20018;-67
2023/07/07 03:51:16;;;;;;;6.60;4.78;;;;;;;11.85;70.93;101550.63;7397952;19;20011;-67
2023/07/07 03:53:47;;;;;;;5.88;5.18;;;;;;;11.84;70.74;101548.88;7396475;19;20021;-68
2023/07/07 03:56:16;;;;;;;7.55;5.20;;;;;;;11.84;70.87;101548.88;7397290;19;20014;-68
2023/07/07 03:58:45;;;;;;;8.07;5.20;;;;;;;11.84;71.02;101549.75;7396955;19;20014;-68
2023/07/07 04:01:16;;;;;;;7.88;5.82;;;;;;;11.86;70.81;101555.84;7394607;19;20006;-68
2023/07/07 04:03:45;;;;;;;146.45;88.72;;;;;;;11.88;70.95;101551.47;7395805;19;20019;-67
2023/07/07 04:06:14;;;;;;;55.60;34.80;;;;;;;11.90;70.82;101554.06;7394253;19;20011;-67
2023/07/07 04:08:43;;;;;;;32.78;23.50;;;;;;;11.93;71.07;101548.78;7396418;19;20022;-68
2023/07/07 04:11:17;;;;;;;13.70;8.50;;;;;;;11.95;71.04;101540.84;7395188;19;20514;-68
2023/07/07 04:13:47;;;;;;;8.43;6.50;;;;;;;12.00;71.01;101550.44;7394057;19;20018;-68
2023/07/07 04:16:18;;;;;;;6.78;6.07;;;;;;;12.04;71.04;101551.25;7396002;19;20014;-68
2023/07/07 04:18:47;;;;;;;6.65;5.53;;;;;;;12.08;70.86;101552.09;7394118;19;20361;-68
2023/07/07 04:21:18;;;;;;;6.72;6.13;;;;;;;12.10;71.03;101556.44;7396170;19;20014;-67
2023/07/07 04:23:49;;;;;;;6.75;6.10;;;;;;;12.15;71.02;101559.00;7395163;19;20070;-67
2023/07/07 04:26:21;;;;;;;9.48;6.40;;;;;;;12.18;70.87;101557.19;7394306;19;20019;-67
2023/07/07 04:28:51;;;;;;;7.25;5.88;;;;;;;12.22;70.91;101558.88;7396279;19;20409;-67
2023/07/07 04:31:20;;;;;;;6.35;5.40;;;;;;;12.26;70.90;101570.22;7395937;19;20011;-67
2023/07/07 04:33:49;;;;;;;6.47;5.55;;;;;;;12.31;70.83;101572.75;7394565;19;20043;-67
2023/07/07 04:36:18;;;;;;;6.53;5.60;;;;;;;12.35;70.75;101574.47;7395381;19;20024;-68
2023/07/07 04:38:48;;;;;;;8.23;7.22;;;;;;;12.38;70.64;101570.03;7395307;19;20089;-67
2023/07/07 04:41:22;;;;;;;8.38;6.90;;;;;;;12.44;70.77;101574.31;7396282;19;20014;-68
2023/07/07 04:43:52;;;;;;;11.27;6.82;;;;;;;12.52;70.66;101574.19;7394644;19;20084;-67
2023/07/07 04:46:24;;;;;;;8.20;6.65;;;;;;;12.58;70.53;101584.63;7394488;19;20082;-68
2023/07/07 04:48:52;;;;;;;9.35;5.93;;;;;;;12.63;70.61;101585.41;7394050;19;20081;-67
2023/07/07 04:51:21;;;;;;;8.15;5.35;;;;;;;12.70;70.54;101579.16;7395346;19;20089;-68
2023/07/07 04:53:50;;;;;;;5.97;5.47;;;;;;;12.78;70.68;101583.44;7393922;19;20015;-67
2023/07/07 04:56:24;;;;;;;5.93;4.82;;;;;;;12.85;70.80;101585.03;7394677;19;20037;-68
2023/07/07 04:58:56;;;;;;;6.60;5.63;;;;;;;12.93;70.66;101584.88;7394168;19;20030;-67
2023/07/07 05:01:27;;;;;;;6.38;5.40;;;;;;;12.99;70.55;101590.94;7393774;19;20373;-67
2023/07/07 05:03:57;;;;;;;6.40;5.65;;;;;;;13.07;70.45;101592.53;7391949;19;20070;-67
2023/07/07 05:06:27;;;;;;;6.43;5.03;;;;;;;13.13;70.54;101593.31;7392279;19;20385;-66
2023/07/07 05:08:56;;;;;;;9.25;4.93;;;;;;;13.21;70.44;101601.06;7393631;19;20090;-67
2023/07/07 05:11:28;;;;;;;8.38;5.53;;;;;;;13.30;70.26;101597.38;7392496;19;20010;-67
2023/07/07 05:13:57;;;;;;;7.10;5.53;;;;;;;13.38;70.25;101599.91;7393416;19;20048;-67
2023/07/07 05:16:28;;;;;;;5.60;5.03;;;;;;;13.46;70.29;101598.84;7392434;19;20077;-68
2023/07/07 05:18:56;;;;;;;9.88;5.63;;;;;;;13.55;70.30;101599.56;7393724;19;20018;-67
2023/07/07 05:21:27;;;;;;;6.15;5.13;;;;;;;13.62;70.01;101599.41;7393946;19;20082;-67
2023/07/07 05:23:57;;;;;;;6.65;5.13;;;;;;;13.70;69.80;101596.63;7392451;19;20370;-68
2023/07/07 05:26:29;;;;;;;9.75;5.80;;;;;;;13.79;69.70;101601.69;7396701;19;20015;-67
2023/07/07 05:29:00;;;;;;;7.32;5.15;;;;;;;13.87;69.68;101601.50;7402425;19;20035;-67
2023/07/07 05:31:29;;;;;;;6.75;5.57;;;;;;;13.95;69.49;101607.50;7401236;19;20025;-66
2023/07/07 05:33:58;;;;;;;8.75;5.30;;;;;;;14.03;69.05;101607.34;7398315;19;20549;-67
2023/07/07 05:36:26;;;;;;;9.82;5.90;;;;;;;14.11;69.20;101607.16;7401850;19;20060;-66
2023/07/07 05:38:55;;;;;;;9.70;5.35;;;;;;;14.20;68.98;101603.44;7401603;19;20019;-69
2023/07/07 05:41:23;;;;;;;7.95;4.43;;;;;;;14.28;68.89;101607.63;7400756;19;20529;-67
2023/07/07 05:43:55;;;;;;;6.35;5.45;;;;;;;14.38;68.67;101603.00;7397732;19;20026;-65
2023/07/07 05:46:23;;;;;;;7.47;5.00;;;;;;;14.45;68.52;101604.56;7399816;19;20015;-66
2023/07/07 05:48:52;;;;;;;7.43;4.97;;;;;;;14.54;68.10;101607.91;7401076;19;20018;-66
2023/07/07 05:51:22;;;;;;;7.38;5.00;;;;;;;14.62;67.96;101608.56;7401655;19;20022;-66
2023/07/07 05:53:50;;;;;;;8.18;5.25;;;;;;;14.71;67.79;101615.44;7398049;19;20019;-66
2023/07/07 05:56:22;;;;;;;5.55;4.95;;;;;;;14.79;67.70;101613.47;7398494;19;20015;-67
2023/07/07 05:58:51;;;;;;;6.20;4.63;;;;;;;14.88;67.14;101613.25;7401104;19;20032;-66
2023/07/07 06:01:22;;;;;;;8.05;4.65;;;;;;;14.96;66.63;101611.28;7400577;19;20017;-66
2023/07/07 06:03:51;;;;;;;7.05;4.57;;;;;;;15.04;66.11;101608.44;7397504;19;20452;-67
2023/07/07 06:06:19;;;;;;;7.25;5.50;;;;;;;15.14;65.65;101615.19;7398680;19;20091;-67
2023/07/07 06:08:48;;;;;;;6.60;4.80;;;;;;;15.25;65.45;101616.69;7400596;19;20024;-67
2023/07/07 06:11:17;;;;;;;6.18;5.25;;;;;;;15.35;65.22;101618.16;7397616;19;20021;-66
2023/07/07 06:13:45;;;;;;;7.65;4.20;;;;;;;15.47;64.65;101628.41;7397719;19;20082;-66
2023/07/07 06:16:13;;;;;;;9.75;4.43;;;;;;;15.57;64.52;101628.13;7400029;19;20082;-66
2023/07/07 06:18:44;;;;;;;6.70;3.95;;;;;;;15.68;63.86;101635.75;7400279;19;20035;-66
2023/07/07 06:21:13;;;;;;;6.05;4.00;;;;;;;15.77;63.61;101628.44;7399908;19;20373;-65
2023/07/07 06:23:42;;;;;;;5.93;4.03;;;;;;;15.88;63.20;101620.19;7398808;19;20088;-67
2023/07/07 06:26:10;;;;;;;10.02;4.00;;;;;;;15.99;62.92;101626.97;7398774;19;20020;-66
2023/07/07 06:28:38;;;;;;;4.47;3.80;;;;;;;16.09;62.20;101626.63;7400582;19;20036;-66
2023/07/07 06:31:07;;;;;;;4.78;4.03;;;;;;;16.19;62.09;101627.22;7399814;19;20074;-66
2023/07/07 06:33:35;;;;;;;5.25;3.83;;;;;;;16.29;61.80;101620.69;7398356;19;20026;-67
2023/07/07 06:36:07;;;;;;;6.70;3.80;;;;;;;16.38;61.56;101616.91;7400072;19;20019;-67
2023/07/07 06:38:35;;;;;;;4.35;3.53;;;;;;;16.50;61.50;101620.06;7395149;19;20454;-67
2023/07/07 06:41:13;;;;;;;4.85;3.47;;;;;;;16.61;60.93;101624.06;7399524;19;20035;-66
2023/07/07 06:43:42;;;;;;;4.50;3.90;;;;;;;16.73;60.33;101622.81;7398366;19;20010;-67
2023/07/07 06:46:14;;;;;;;4.90;3.97;;;;;;;16.86;60.26;101623.28;7398087;19;20018;-67
2023/07/07 06:48:43;;;;;;;6.40;3.60;;;;;;;16.95;59.85;101622.13;7399670;19;20014;-68
2023/07/07 06:51:14;;;;;;;5.05;3.20;;;;;;;17.06;59.53;101625.25;7398841;19;20024;-68
2023/07/07 06:53:42;;;;;;;6.03;3.72;;;;;;;17.18;59.21;101629.25;7397508;19;20074;-67
2023/07/07 06:56:11;;;;;;;3.95;3.25;;;;;;;17.29;58.43;101620.94;7398761;19;20021;-66
2023/07/07 06:58:40;;;;;;;4.53;3.30;;;;;;;17.40;58.57;101628.47;7396162;19;20074;-66
2023/07/07 07:01:09;;;;;;;3.85;2.97;;;;;;;17.54;57.87;101626.22;7398517;19;20035;-67
2023/07/07 07:03:38;;;;;;;5.18;2.80;;;;;;;17.66;57.52;101622.22;7395893;19;20040;-67
2023/07/07 07:06:07;;;;;;;4.80;3.10;;;;;;;17.82;57.74;101629.59;7396163;19;20018;-69
2023/07/07 07:08:38;;;;;;;5.35;3.28;;;;;;;17.96;57.30;101634.41;7395696;19;20014;-67
2023/07/07 07:11:14;;;;;;;5.05;3.33;;;;;;;18.08;57.07;101625.97;7396054;19;20010;-66
2023/07/07 07:13:43;;;;;;;3.47;3.17;;;;;;;18.23;57.27;101619.19;7395339;19;20015;-69
2023/07/07 07:16:11;;;;;;;4.18;3.60;;;;;;;18.36;56.89;101628.41;7397563;19;20013;-67
2023/07/07 07:18:40;;;;;;;5.45;3.30;;;;;;;18.47;57.01;101622.63;7397970;19;20031;-68
2023/07/07 07:21:08;;;;;;;14.70;4.18;;;;;;;18.58;56.36;101624.88;7398016;19;20010;-68
2023/07/07 07:23:39;;;;;;;15.02;4.78;;;;;;;18.68;56.18;101620.88;7396834;19;20031;-67
2023/07/07 07:26:08;;;;;;;8.25;3.70;;;;;;;18.80;56.29;101624.81;7396653;19;20021;-67
2023/07/07 07:28:36;;;;;;;8.93;3.53;;;;;;;18.91;55.94;101629.72;7397749;19;20082;-67
2023/07/07 07:31:04;;;;;;;3.38;3.08;;;;;;;19.00;55.88;101626.66;7398128;19;20365;-67
2023/07/07 07:33:33;;;;;;;3.92;3.53;;;;;;;19.12;55.90;101627.06;7397871;19;20074;-67
2023/07/07 07:36:02;;;;;;;3.58;2.90;;;;;;;19.23;55.45;101623.94;7396129;19;20047;-67
2023/07/07 07:38:30;;;;;;;5.55;2.85;;;;;;;19.32;55.51;101627.06;7397822;19;20027;-67
2023/07/07 07:41:01;;;;;;;2.97;2.58;;;;;;;19.47;54.73;101627.28;7397986;19;20018;-67
2023/07/07 07:43:30;;;;;;;4.40;2.72;;;;;;;19.58;54.69;101621.50;7395034;19;20365;-69
2023/07/07 07:45:58;;;;;;;4.95;2.95;;;;;;;19.69;53.97;101619.19;7396775;19;20074;-68
2023/07/07 07:48:27;;;;;;;4.65;2.50;;;;;;;19.81;52.73;101628.41;7398267;19;20015;-68
2023/07/07 07:50:55;;;;;;;3.30;2.30;;;;;;;19.89;51.65;101620.97;7395110;19;20014;-68
2023/07/07 07:53:23;;;;;;;5.03;2.92;;;;;;;20.00;51.25;101634.63;7394827;19;20014;-68
2023/07/07 07:55:52;;;;;;;5.15;3.15;;;;;;;20.13;50.85;101623.38;7394029;19;20489;-66
2023/07/07 07:58:23;;;;;;;5.75;3.40;;;;;;;20.24;50.04;101623.72;7396548;19;20563;-68
2023/07/07 08:00:51;;;;;;;3.25;2.35;;;;;;;20.34;49.70;101624.16;7395886;19;20021;-68
2023/07/07 08:03:20;;;;;;;3.33;2.20;;;;;;;20.41;49.74;101625.56;7394181;19;20359;-68
2023/07/07 08:05:48;;;;;;;5.68;2.78;;;;;;;20.53;48.51;101625.91;7395667;19;20351;-67
2023/07/07 08:08:16;;;;;;;2.63;2.03;;;;;;;20.63;47.13;101622.69;7396342;19;20016;-68
2023/07/07 08:10:45;;;;;;;15.13;2.90;;;;;;;20.73;46.50;101628.47;7394883;19;20011;-68
2023/07/07 08:13:13;;;;;;;7.00;2.10;;;;;;;20.85;45.98;101632.28;7395052;19;20014;-68
2023/07/07 08:15:44;;;;;;;2.80;1.90;;;;;;;20.95;44.60;101628.25;7396434;19;20015;-68
2023/07/07 08:18:13;;;;;;;6.35;2.58;;;;;;;21.06;44.25;101629.47;7396718;19;20380;-68
2023/07/07 08:20:41;;;;;;;4.05;1.55;;;;;;;21.14;42.93;101621.94;7395975;19;20018;-66
2023/07/07 08:23:10;;;;;;;2.20;1.48;;;;;;;21.22;42.78;101627.75;7394531;19;20395;-66
2023/07/07 08:25:38;;;;;;;11.02;1.90;;;;;;;21.30;42.67;101628.19;7393669;19;20015;-67
2023/07/07 08:28:07;;;;;;;2.47;1.63;;;;;;;21.40;42.12;101633.91;7394161;19;20022;-67
2023/07/07 08:30:35;;;;;;;4.32;1.90;;;;;;;21.51;41.61;101629.78;7395545;19;20017;-68
2023/07/07 08:33:06;;;;;;;3.35;1.88;;;;;;;21.60;41.08;101630.19;7395253;19;20425;-67
2023/07/07 08:35:35;;;;;;;2.55;1.63;;;;;;;21.69;41.53;101627.97;7394094;19;20494;-68
2023/07/07 08:38:03;;;;;;;3.92;1.45;;;;;;;21.79;41.01;101631.84;7393790;19;20022;-67
2023/07/07 08:40:50;;;;;;;3.38;2.03;;;;;;;21.88;41.51;101633.16;7393425;19;20095;-67
2023/07/07 08:43:20;;;;;;;2.60;1.55;;;;;;;21.95;41.40;101627.38;7394976;19;20094;-67
2023/07/07 08:45:58;;;;;;;1.98;1.60;;;;;;;22.04;40.82;101625.13;7395638;19;20022;-67
2023/07/07 08:48:38;;;;;;;3.38;2.00;;;;;;;22.12;40.72;101625.56;7395975;19;20014;-67
2023/07/07 08:51:12;;;;;;;2.00;1.70;;;;;;;22.21;40.84;101629.53;7395213;19;20025;-67
2023/07/07 08:53:51;;;;;;;2.30;1.88;;;;;;;22.27;40.35;101632.72;7393041;19;20019;-67
2023/07/07 08:56:25;;;;;;;4.25;1.95;;;;;;;22.32;40.55;101635.13;7395507;19;20034;-67
2023/07/07 08:59:06;;;;;;;2.47;1.70;;;;;;;22.35;40.14;101623.41;7394931;19;20042;-67
2023/07/07 09:01:49;;;;;;;2.13;1.42;;;;;;;22.43;38.87;101634.53;7393260;19;20369;-67
2023/07/07 09:04:33;;;;;;;3.92;1.75;;;;;;;22.50;39.19;101630.56;7392858;19;20018;-67
2023/07/07 09:07:21;;;;;;;8.55;1.60;;;;;;;22.59;38.78;101624.66;7393642;19;20014;-68
2023/07/07 09:10:04;;;;;;;2.22;1.85;;;;;;;22.69;38.20;101618.78;7392560;19;20073;-68
2023/07/07 09:12:38;;;;;;;;;;;;;;;22.75;38.55;101613.09;7393771;19;20078;-66
2023/07/07 09:15:14;;;;;;;2.20;1.58;;;;;;;22.82;37.45;101619.75;7392688;19;19929;-66
2023/07/07 09:17:48;;;;;;;4.03;1.95;;;;;;;22.89;38.91;101622.97;7394724;19;20025;-66
2023/07/07 09:20:22;;;;;;;2.22;1.70;;;;;;;22.99;38.44;101623.25;7394692;19;20071;-66
2023/07/07 09:22:55;;;;;;;2.53;1.67;;;;;;;23.10;37.93;101618.97;7394480;19;20041;-67
2023/07/07 09:25:30;;;;;;;2.67;1.60;;;;;;;23.19;37.80;101619.38;7394601;19;20019;-67
2023/07/07 09:28:02;;;;;;;2.03;1.70;;;;;;;23.30;37.75;101624.09;7392035;19;20017;-69
2023/07/07 09:30:35;;;;;;;3.30;1.65;;;;;;;23.30;37.08;101616.91;7394601;19;20015;-69
2023/07/07 09:33:04;;;;;;;1.45;1.33;;;;;;;23.43;37.08;101614.34;7393786;19;20043;-69
2023/07/07 09:35:40;;;;;;;1.80;1.60;;;;;;;23.49;37.12;101613.09;7393998;19;20021;-69
2023/07/07 09:38:21;;;;;;;3.20;1.77;;;;;;;23.57;36.94;101621.53;7394910;19;20402;-69
2023/07/07 09:40:56;;;;;;;3.28;1.63;;;;;;;23.65;36.37;101619.19;7394006;19;20074;-69
2023/07/07 09:43:32;;;;;;;1.98;1.67;;;;;;;23.77;35.61;101617.59;7391483;19;20033;-69
2023/07/07 09:46:11;;;;;;;2.58;2.00;;;;;;;23.88;35.89;101612.34;7393904;19;20019;-69
2023/07/07 09:48:47;;;;;;;3.40;2.22;;;;;;;23.97;36.30;101618.13;7393200;19;20021;-69
2023/07/07 09:51:27;;;;;;;2.10;1.85;;;;;;;24.03;36.41;101609.69;7393548;19;20086;-69
2023/07/07 09:53:56;;;;;;;5.00;2.47;;;;;;;24.14;36.10;101611.66;7396654;19;20023;-71
2023/07/07 09:56:35;;;;;;;3.40;1.90;;;;;;;24.20;35.45;101609.47;7390979;19;20015;-70
2023/07/07 09:59:13;;;;;;;3.20;1.67;;;;;;;24.24;35.39;101608.28;7393828;19;20019;-70
2023/07/07 10:01:47;;;;;;;3.78;2.08;;;;;;;24.29;34.55;101608.00;7394544;19;20085;-70
2023/07/07 10:04:19;;;;;;;2.65;1.50;;;;;;;24.35;35.06;101598.66;7392232;19;20031;-70
2023/07/07 10:06:55;;;;;;;1.73;1.40;;;;;;;24.43;33.89;101600.81;7391055;19;20014;-68
2023/07/07 10:09:26;;;;;;;1.63;1.30;;;;;;;24.49;34.33;101587.00;7391087;19;20014;-68
2023/07/07 10:11:56;;;;;;;2.15;1.20;;;;;;;24.53;34.08;101597.44;7390719;19;20007;-69
2023/07/07 10:14:27;;;;;;;2.13;1.33;;;;;;;24.58;33.38;101599.81;7397737;19;20494;-68
2023/07/07 10:17:04;;;;;;;2.13;1.60;;;;;;;24.63;32.75;101600.38;7399080;19;20499;-69
2023/07/07 10:19:36;;;;;;;4.72;1.38;;;;;;;24.68;33.11;101597.38;7397752;19;20023;-69
2023/07/07 10:22:07;;;;;;;1.60;1.30;;;;;;;24.73;33.06;101597.91;7399729;19;20051;-68
2023/07/07 10:24:36;;;;;;;3.53;1.83;;;;;;;24.76;33.60;101596.84;7396577;19;20022;-68
2023/07/07 10:27:05;;;;;;;2.05;1.55;;;;;;;24.81;33.53;101589.38;7398101;19;20028;-69
2023/07/07 10:29:41;;;;;;;4.10;2.85;;;;;;;24.84;33.14;101590.00;7398881;19;20074;-68
2023/07/07 10:32:14;;;;;;;2.17;1.70;;;;;;;24.91;32.54;101597.63;7399050;19;20014;-69
2023/07/07 10:34:47;;;;;;;3.15;1.60;;;;;;;24.93;32.66;101582.28;7396873;19;20022;-70
2023/07/07 10:37:24;;;;;;;3.92;2.03;;;;;;;24.96;32.61;101582.94;7396576;19;20010;-69
2023/07/07 10:39:54;;;;;;;2.28;1.42;;;;;;;24.98;32.41;101578.28;7399373;19;20019;-67
2023/07/07 10:42:24;;;;;;;3.45;1.52;;;;;;;25.00;32.26;101581.75;7399252;19;20022;-68
2023/07/07 10:44:53;;;;;;;3.33;1.48;;;;;;;25.04;32.28;101577.88;7397032;19;20022;-68
2023/07/07 10:47:24;;;;;;;3.13;1.40;;;;;;;25.08;31.70;101580.38;7398341;19;20118;-70
2023/07/07 10:49:52;;;;;;;2.03;1.70;;;;;;;25.13;31.59;101571.00;7396490;19;20027;-70
2023/07/07 10:53:04;;;;;;;2.97;1.65;;;;;;;25.22;31.98;101574.88;7398518;19;20549;-69
2023/07/07 10:55:50;;;;;;;3.13;1.40;;;;;;;25.31;31.73;101574.22;7394602;19;20082;-69
2023/07/07 10:58:33;;;;;;;3.60;1.73;;;;;;;25.39;30.93;101575.50;7396530;19;20022;-69
2023/07/07 11:01:12;;;;;;;5.45;1.38;;;;;;;25.42;31.37;101564.56;7399772;19;20017;-69
2023/07/07 11:04:17;;;;;;;2.03;1.60;;;;;;;25.48;31.70;101567.66;7396774;19;20032;-72
2023/07/07 11:06:59;;;;;;;2.53;1.48;;;;;;;25.59;31.89;101571.41;7396819;19;20024;-70
2023/07/07 11:09:40;;;;;;;5.18;2.03;;;;;;;25.69;31.45;101567.94;7398297;19;20085;-71
2023/07/07 11:12:31;;;;;;;4.25;3.72;;;;;;;25.83;30.99;101558.88;7394658;19;20098;-72
2023/07/07 11:15:07;;;;;;;3.15;1.85;;;;;;;25.94;31.06;101558.06;7397941;19;20038;-73
2023/07/07 11:17:54;;;;;;;3.60;1.80;;;;;;;26.07;30.92;101560.75;7398459;19;20022;-74
2023/07/07 11:20:45;;;;;;;1.42;1.23;;;;;;;26.17;29.67;101556.38;7395446;19;20372;-70
2023/07/07 11:23:33;;;;;;;2.35;1.50;;;;;;;26.27;29.17;101553.00;7394144;19;20066;-68
2023/07/07 11:26:12;;;;;;;2.40;1.60;;;;;;;26.36;30.04;101551.44;7397670;19;20370;-67
2023/07/07 11:28:54;;;;;;;2.80;1.27;;;;;;;26.46;29.08;101547.06;7395935;19;20014;-69
2023/07/07 11:31:38;;;;;;;2.80;1.60;;;;;;;26.57;28.83;101546.25;7397587;19;20043;-69
2023/07/07 11:34:27;;;;;;;5.30;1.67;;;;;;;26.72;28.55;101536.97;7396076;19;20019;-68
2023/07/07 11:37:06;;;;;;;2.65;1.70;;;;;;;26.90;29.01;101545.47;7395700;19;20042;-68
2023/07/07 11:39:55;;;;;;;4.38;1.30;;;;;;;27.06;28.67;101534.34;7396942;19;20015;-69
2023/07/07 11:42:47;;;;;;;3.95;2.15;;;;;;;27.29;28.25;101531.66;7395703;19;20031;-69
2023/07/07 11:45:24;;;;;;;3.80;1.50;;;;;;;27.53;27.75;101538.75;7397322;19;20014;-70
2023/07/07 11:48:19;;;;;;;2.38;1.50;;;;;;;27.75;28.00;101538.72;7394994;19;20046;-70